sensor_id;sensor_type;location;lat;lon;timestamp;temperature;humidity
33007;DHT22;19361;51.598;7.650;2023-11-19T00:01:33;12.30;82.10
33007;DHT22;19361;51.598;7.650;2023-11-19T00:06:33;12.30;82.10
33007;DHT22;19361;51.598;7.650;2023-11-19T00:11:34;12.40;82.00
33007;DHT22;19361;51.598;7.650;2023-11-19T00:16:35;12.40;82.00
33007;DHT22;19361;51.598;7.650;2023-11-19T00:21:35;12.40;82.10
33007;DHT22;19361;51.598;7.650;2023-11-19T00:26:36;12.50;82.00
33007;DHT22;19361;51.598;7.650;2023-11-19T00:31:37;12.50;82.20
33007;DHT22;19361;51.598;7.650;2023-11-19T00:36:39;12.60;82.30
33007;DHT22;19361;51.598;7.650;2023-11-19T00:41:39;12.60;82.30
33007;DHT22;19361;51.598;7.650;2023-11-19T00:46:40;12.60;82.30
33007;DHT22;19361;51.598;7.650;2023-11-19T00:51:41;12.70;82.50
33007;DHT22;19361;51.598;7.650;2023-11-19T00:56:41;12.70;82.50
33007;DHT22;19361;51.598;7.650;2023-11-19T01:01:42;12.80;82.40
33007;DHT22;19361;51.598;7.650;2023-11-19T01:06:43;12.80;82.50
33007;DHT22;19361;51.598;7.650;2023-11-19T01:11:43;12.90;82.50
33007;DHT22;19361;51.598;7.650;2023-11-19T01:16:45;12.90;82.50
33007;DHT22;19361;51.598;7.650;2023-11-19T01:21:45;13.00;82.80
33007;DHT22;19361;51.598;7.650;2023-11-19T01:26:46;13.10;83.20
33007;DHT22;19361;51.598;7.650;2023-11-19T01:31:47;13.10;83.40
33007;DHT22;19361;51.598;7.650;2023-11-19T01:36:47;13.20;83.30
33007;DHT22;19361;51.598;7.650;2023-11-19T01:41:49;13.30;83.60
33007;DHT22;19361;51.598;7.650;2023-11-19T01:46:49;13.30;83.70
33007;DHT22;19361;51.598;7.650;2023-11-19T01:51:50;13.40;83.50
33007;DHT22;19361;51.598;7.650;2023-11-19T01:56:52;13.50;83.60
33007;DHT22;19361;51.598;7.650;2023-11-19T02:01:56;13.50;83.60
33007;DHT22;19361;51.598;7.650;2023-11-19T02:06:58;13.60;83.50
33007;DHT22;19361;51.598;7.650;2023-11-19T02:11:59;13.60;83.30
33007;DHT22;19361;51.598;7.650;2023-11-19T02:17:00;13.70;83.50
33007;DHT22;19361;51.598;7.650;2023-11-19T02:22:01;13.70;83.50
33007;DHT22;19361;51.598;7.650;2023-11-19T02:27:13;13.80;83.60
33007;DHT22;19361;51.598;7.650;2023-11-19T02:32:17;13.80;83.80
33007;DHT22;19361;51.598;7.650;2023-11-19T02:37:17;13.90;83.60
33007;DHT22;19361;51.598;7.650;2023-11-19T02:42:19;13.90;83.60
33007;DHT22;19361;51.598;7.650;2023-11-19T02:47:20;13.90;83.60
33007;DHT22;19361;51.598;7.650;2023-11-19T02:52:21;13.90;83.60
33007;DHT22;19361;51.598;7.650;2023-11-19T02:57:22;14.00;83.50
33007;DHT22;19361;51.598;7.650;2023-11-19T03:02:23;14.00;83.60
33007;DHT22;19361;51.598;7.650;2023-11-19T03:07:26;14.10;83.40
33007;DHT22;19361;51.598;7.650;2023-11-19T03:12:27;14.10;83.50
33007;DHT22;19361;51.598;7.650;2023-11-19T03:17:28;14.10;83.50
33007;DHT22;19361;51.598;7.650;2023-11-19T03:22:28;14.10;83.50
33007;DHT22;19361;51.598;7.650;2023-11-19T03:27:30;14.20;83.70
33007;DHT22;19361;51.598;7.650;2023-11-19T03:32:32;14.20;83.40
33007;DHT22;19361;51.598;7.650;2023-11-19T03:37:33;14.30;83.50
33007;DHT22;19361;51.598;7.650;2023-11-19T03:42:33;14.30;83.40
33007;DHT22;19361;51.598;7.650;2023-11-19T03:47:35;14.30;83.30
33007;DHT22;19361;51.598;7.650;2023-11-19T03:52:36;14.40;83.30
33007;DHT22;19361;51.598;7.650;2023-11-19T03:57:37;14.40;83.30
33007;DHT22;19361;51.598;7.650;2023-11-19T04:02:37;14.40;83.20
33007;DHT22;19361;51.598;7.650;2023-11-19T04:07:38;14.50;83.00
33007;DHT22;19361;51.598;7.650;2023-11-19T04:12:39;14.50;82.80
33007;DHT22;19361;51.598;7.650;2023-11-19T04:17:39;14.60;82.60
33007;DHT22;19361;51.598;7.650;2023-11-19T04:22:40;14.60;82.30
33007;DHT22;19361;51.598;7.650;2023-11-19T04:27:41;14.60;82.20
33007;DHT22;19361;51.598;7.650;2023-11-19T04:32:41;14.50;82.10
33007;DHT22;19361;51.598;7.650;2023-11-19T04:37:42;14.60;81.90
33007;DHT22;19361;51.598;7.650;2023-11-19T04:42:43;14.60;81.30
33007;DHT22;19361;51.598;7.650;2023-11-19T04:47:44;14.50;80.90
33007;DHT22;19361;51.598;7.650;2023-11-19T04:52:44;14.50;80.60
33007;DHT22;19361;51.598;7.650;2023-11-19T04:57:45;14.40;80.60
33007;DHT22;19361;51.598;7.650;2023-11-19T05:02:46;14.40;80.50
33007;DHT22;19361;51.598;7.650;2023-11-19T05:07:46;14.40;80.50
33007;DHT22;19361;51.598;7.650;2023-11-19T05:12:47;14.40;80.30
33007;DHT22;19361;51.598;7.650;2023-11-19T05:17:48;14.40;80.10
33007;DHT22;19361;51.598;7.650;2023-11-19T05:22:49;14.40;79.80
33007;DHT22;19361;51.598;7.650;2023-11-19T05:27:51;14.30;79.60
33007;DHT22;19361;51.598;7.650;2023-11-19T05:32:52;14.30;79.60
33007;DHT22;19361;51.598;7.650;2023-11-19T05:37:52;14.30;79.40
33007;DHT22;19361;51.598;7.650;2023-11-19T05:42:53;14.20;79.10
33007;DHT22;19361;51.598;7.650;2023-11-19T05:47:54;14.20;79.20
33007;DHT22;19361;51.598;7.650;2023-11-19T05:52:54;14.20;79.30
33007;DHT22;19361;51.598;7.650;2023-11-19T05:57:55;14.10;78.90
33007;DHT22;19361;51.598;7.650;2023-11-19T06:02:56;14.10;78.90
33007;DHT22;19361;51.598;7.650;2023-11-19T06:07:56;14.10;78.80
33007;DHT22;19361;51.598;7.650;2023-11-19T06:12:58;14.10;78.90
33007;DHT22;19361;51.598;7.650;2023-11-19T06:18:00;14.10;78.70
33007;DHT22;19361;51.598;7.650;2023-11-19T06:23:02;14.20;78.70
33007;DHT22;19361;51.598;7.650;2023-11-19T06:28:03;14.10;78.10
33007;DHT22;19361;51.598;7.650;2023-11-19T06:33:04;14.20;78.10
33007;DHT22;19361;51.598;7.650;2023-11-19T06:38:05;14.10;77.80
33007;DHT22;19361;51.598;7.650;2023-11-19T06:43:06;14.10;77.80
33007;DHT22;19361;51.598;7.650;2023-11-19T06:48:08;14.00;77.90
33007;DHT22;19361;51.598;7.650;2023-11-19T06:53:09;14.00;77.80
33007;DHT22;19361;51.598;7.650;2023-11-19T06:58:10;14.00;77.90
33007;DHT22;19361;51.598;7.650;2023-11-19T07:03:12;14.00;77.50
33007;DHT22;19361;51.598;7.650;2023-11-19T07:08:13;14.00;77.20
33007;DHT22;19361;51.598;7.650;2023-11-19T07:13:14;14.00;77.20
33007;DHT22;19361;51.598;7.650;2023-11-19T07:18:15;14.00;77.10
33007;DHT22;19361;51.598;7.650;2023-11-19T07:23:16;14.00;77.10
33007;DHT22;19361;51.598;7.650;2023-11-19T07:28:16;14.10;77.30
33007;DHT22;19361;51.598;7.650;2023-11-19T07:33:17;14.10;77.10
33007;DHT22;19361;51.598;7.650;2023-11-19T07:38:18;14.10;76.90
33007;DHT22;19361;51.598;7.650;2023-11-19T07:43:19;14.10;76.30
33007;DHT22;19361;51.598;7.650;2023-11-19T07:48:19;14.20;75.70
33007;DHT22;19361;51.598;7.650;2023-11-19T07:53:24;14.20;75.40
33007;DHT22;19361;51.598;7.650;2023-11-19T07:58:25;14.20;75.10
33007;DHT22;19361;51.598;7.650;2023-11-19T08:03:26;14.30;74.90
33007;DHT22;19361;51.598;7.650;2023-11-19T08:08:26;14.30;74.90
33007;DHT22;19361;51.598;7.650;2023-11-19T08:13:29;14.30;74.50
33007;DHT22;19361;51.598;7.650;2023-11-19T08:18:31;14.30;73.70
33007;DHT22;19361;51.598;7.650;2023-11-19T08:23:32;14.30;73.70
33007;DHT22;19361;51.598;7.650;2023-11-19T08:28:32;14.30;74.10
33007;DHT22;19361;51.598;7.650;2023-11-19T08:33:34;14.30;74.00
33007;DHT22;19361;51.598;7.650;2023-11-19T08:38:35;14.30;74.20
33007;DHT22;19361;51.598;7.650;2023-11-19T08:43:36;14.40;73.80
33007;DHT22;19361;51.598;7.650;2023-11-19T08:48:37;14.50;73.60
33007;DHT22;19361;51.598;7.650;2023-11-19T08:53:38;14.50;73.50
33007;DHT22;19361;51.598;7.650;2023-11-19T08:58:39;14.60;73.20
33007;DHT22;19361;51.598;7.650;2023-11-19T09:03:40;14.60;73.20
33007;DHT22;19361;51.598;7.650;2023-11-19T09:08:42;14.70;72.90
33007;DHT22;19361;51.598;7.650;2023-11-19T09:13:43;14.70;72.50
33007;DHT22;19361;51.598;7.650;2023-11-19T09:18:45;14.80;72.30
33007;DHT22;19361;51.598;7.650;2023-11-19T09:23:46;14.90;72.30
33007;DHT22;19361;51.598;7.650;2023-11-19T09:28:47;14.90;72.50
33007;DHT22;19361;51.598;7.650;2023-11-19T09:33:48;15.00;71.80
33007;DHT22;19361;51.598;7.650;2023-11-19T09:38:48;15.00;71.30
33007;DHT22;19361;51.598;7.650;2023-11-19T09:43:50;15.10;71.30
33007;DHT22;19361;51.598;7.650;2023-11-19T09:48:53;15.10;71.30
33007;DHT22;19361;51.598;7.650;2023-11-19T09:53:56;15.20;70.90
33007;DHT22;19361;51.598;7.650;2023-11-19T09:58:58;15.30;70.60
33007;DHT22;19361;51.598;7.650;2023-11-19T10:04:00;15.40;70.20
33007;DHT22;19361;51.598;7.650;2023-11-19T10:09:01;15.40;69.40
33007;DHT22;19361;51.598;7.650;2023-11-19T10:14:05;15.50;69.30
33007;DHT22;19361;51.598;7.650;2023-11-19T10:19:06;15.50;68.40
33007;DHT22;19361;51.598;7.650;2023-11-19T10:24:06;15.40;68.70
33007;DHT22;19361;51.598;7.650;2023-11-19T10:29:07;15.40;68.60
33007;DHT22;19361;51.598;7.650;2023-11-19T10:34:24;15.30;69.10
33007;DHT22;19361;51.598;7.650;2023-11-19T10:39:53;15.30;68.50
33007;DHT22;19361;51.598;7.650;2023-11-19T10:44:56;15.30;68.50
33007;DHT22;19361;51.598;7.650;2023-11-19T10:49:57;15.20;69.40
33007;DHT22;19361;51.598;7.650;2023-11-19T10:55:00;15.20;68.80
33007;DHT22;19361;51.598;7.650;2023-11-19T11:00:02;15.20;69.00
33007;DHT22;19361;51.598;7.650;2023-11-19T11:05:12;15.20;69.00
33007;DHT22;19361;51.598;7.650;2023-11-19T11:10:14;15.20;68.50
33007;DHT22;19361;51.598;7.650;2023-11-19T11:15:18;15.20;68.00
33007;DHT22;19361;51.598;7.650;2023-11-19T11:20:19;15.30;68.80
33007;DHT22;19361;51.598;7.650;2023-11-19T11:30:46;15.30;68.20
33007;DHT22;19361;51.598;7.650;2023-11-19T11:36:17;15.30;68.40
33007;DHT22;19361;51.598;7.650;2023-11-19T11:41:24;15.40;68.20
33007;DHT22;19361;51.598;7.650;2023-11-19T11:57:11;15.50;67.80
33007;DHT22;19361;51.598;7.650;2023-11-19T12:02:22;15.50;67.90
33007;DHT22;19361;51.598;7.650;2023-11-19T12:07:24;15.50;67.70
33007;DHT22;19361;51.598;7.650;2023-11-19T12:12:29;15.40;68.30
33007;DHT22;19361;51.598;7.650;2023-11-19T12:22:35;15.40;68.50
33007;DHT22;19361;51.598;7.650;2023-11-19T12:27:41;15.50;68.50
33007;DHT22;19361;51.598;7.650;2023-11-19T12:32:45;15.50;68.10
33007;DHT22;19361;51.598;7.650;2023-11-19T12:37:48;15.60;67.10
33007;DHT22;19361;51.598;7.650;2023-11-19T12:42:51;15.70;67.40
33007;DHT22;19361;51.598;7.650;2023-11-19T12:48:13;15.80;66.50
33007;DHT22;19361;51.598;7.650;2023-11-19T12:53:14;15.80;66.30
33007;DHT22;19361;51.598;7.650;2023-11-19T12:58:35;15.80;66.10
33007;DHT22;19361;51.598;7.650;2023-11-19T13:03:37;15.80;64.70
33007;DHT22;19361;51.598;7.650;2023-11-19T13:08:40;15.80;65.90
33007;DHT22;19361;51.598;7.650;2023-11-19T13:14:01;15.80;65.10
33007;DHT22;19361;51.598;7.650;2023-11-19T13:19:09;15.80;64.90
33007;DHT22;19361;51.598;7.650;2023-11-19T13:24:10;15.80;65.30
33007;DHT22;19361;51.598;7.650;2023-11-19T13:29:11;15.80;65.80
33007;DHT22;19361;51.598;7.650;2023-11-19T13:34:12;15.70;66.60
33007;DHT22;19361;51.598;7.650;2023-11-19T13:39:12;15.60;67.10
33007;DHT22;19361;51.598;7.650;2023-11-19T13:44:13;15.50;67.40
33007;DHT22;19361;51.598;7.650;2023-11-19T13:49:13;15.50;68.30
33007;DHT22;19361;51.598;7.650;2023-11-19T13:54:15;15.40;68.20
33007;DHT22;19361;51.598;7.650;2023-11-19T13:59:16;15.40;68.60
33007;DHT22;19361;51.598;7.650;2023-11-19T14:04:17;15.30;68.50
33007;DHT22;19361;51.598;7.650;2023-11-19T14:09:18;15.30;68.60
33007;DHT22;19361;51.598;7.650;2023-11-19T14:14:18;15.30;68.20
33007;DHT22;19361;51.598;7.650;2023-11-19T14:19:19;15.20;68.30
33007;DHT22;19361;51.598;7.650;2023-11-19T14:24:20;15.20;68.10
33007;DHT22;19361;51.598;7.650;2023-11-19T14:29:20;15.10;68.20
33007;DHT22;19361;51.598;7.650;2023-11-19T14:34:21;15.10;68.40
33007;DHT22;19361;51.598;7.650;2023-11-19T14:39:22;15.10;68.60
33007;DHT22;19361;51.598;7.650;2023-11-19T14:44:23;15.10;68.50
33007;DHT22;19361;51.598;7.650;2023-11-19T14:49:23;15.10;68.50
33007;DHT22;19361;51.598;7.650;2023-11-19T14:54:24;15.10;68.70
33007;DHT22;19361;51.598;7.650;2023-11-19T14:59:26;15.10;68.80
33007;DHT22;19361;51.598;7.650;2023-11-19T15:04:27;15.10;68.90
33007;DHT22;19361;51.598;7.650;2023-11-19T15:09:27;15.10;69.10
33007;DHT22;19361;51.598;7.650;2023-11-19T15:14:28;15.00;69.20
33007;DHT22;19361;51.598;7.650;2023-11-19T15:19:30;15.00;69.40
33007;DHT22;19361;51.598;7.650;2023-11-19T15:24:31;14.90;69.60
33007;DHT22;19361;51.598;7.650;2023-11-19T15:29:32;14.80;69.70
33007;DHT22;19361;51.598;7.650;2023-11-19T15:34:34;14.90;69.70
33007;DHT22;19361;51.598;7.650;2023-11-19T15:39:38;14.80;69.80
33007;DHT22;19361;51.598;7.650;2023-11-19T15:44:38;14.70;69.70
33007;DHT22;19361;51.598;7.650;2023-11-19T15:49:39;14.70;69.70
33007;DHT22;19361;51.598;7.650;2023-11-19T15:54:41;14.70;70.00
33007;DHT22;19361;51.598;7.650;2023-11-19T15:59:41;14.60;70.10
33007;DHT22;19361;51.598;7.650;2023-11-19T16:04:42;14.60;70.20
33007;DHT22;19361;51.598;7.650;2023-11-19T16:09:47;14.60;70.20
33007;DHT22;19361;51.598;7.650;2023-11-19T16:14:48;14.60;70.20
33007;DHT22;19361;51.598;7.650;2023-11-19T16:19:49;14.60;70.30
33007;DHT22;19361;51.598;7.650;2023-11-19T16:24:50;14.50;70.40
33007;DHT22;19361;51.598;7.650;2023-11-19T16:29:53;14.50;70.60
33007;DHT22;19361;51.598;7.650;2023-11-19T16:34:54;14.50;70.70
33007;DHT22;19361;51.598;7.650;2023-11-19T16:39:56;14.50;70.80
33007;DHT22;19361;51.598;7.650;2023-11-19T16:44:56;14.50;71.00
33007;DHT22;19361;51.598;7.650;2023-11-19T16:49:57;14.50;71.00
33007;DHT22;19361;51.598;7.650;2023-11-19T16:54:58;14.50;71.10
33007;DHT22;19361;51.598;7.650;2023-11-19T16:59:59;14.50;71.40
33007;DHT22;19361;51.598;7.650;2023-11-19T17:04:59;14.50;71.60
33007;DHT22;19361;51.598;7.650;2023-11-19T17:10:00;14.40;71.70
33007;DHT22;19361;51.598;7.650;2023-11-19T17:15:03;14.40;72.20
33007;DHT22;19361;51.598;7.650;2023-11-19T17:20:07;14.30;72.20
33007;DHT22;19361;51.598;7.650;2023-11-19T17:25:09;14.30;72.40
33007;DHT22;19361;51.598;7.650;2023-11-19T17:30:10;14.30;72.50
33007;DHT22;19361;51.598;7.650;2023-11-19T17:35:11;14.30;72.60
33007;DHT22;19361;51.598;7.650;2023-11-19T17:40:12;14.20;72.70
33007;DHT22;19361;51.598;7.650;2023-11-19T17:45:16;14.20;72.70
33007;DHT22;19361;51.598;7.650;2023-11-19T17:50:20;14.20;72.80
33007;DHT22;19361;51.598;7.650;2023-11-19T17:55:21;14.20;72.90
33007;DHT22;19361;51.598;7.650;2023-11-19T18:00:22;14.20;72.80
33007;DHT22;19361;51.598;7.650;2023-11-19T18:05:23;14.20;72.70
33007;DHT22;19361;51.598;7.650;2023-11-19T18:10:23;14.20;72.60
33007;DHT22;19361;51.598;7.650;2023-11-19T18:15:24;14.10;73.10
33007;DHT22;19361;51.598;7.650;2023-11-19T18:20:26;14.20;72.60
33007;DHT22;19361;51.598;7.650;2023-11-19T18:25:27;14.20;72.70
33007;DHT22;19361;51.598;7.650;2023-11-19T18:30:27;14.20;73.00
33007;DHT22;19361;51.598;7.650;2023-11-19T18:35:28;14.20;73.20
33007;DHT22;19361;51.598;7.650;2023-11-19T18:40:29;14.10;73.20
33007;DHT22;19361;51.598;7.650;2023-11-19T18:45:29;14.10;73.40
33007;DHT22;19361;51.598;7.650;2023-11-19T18:50:30;14.00;73.50
33007;DHT22;19361;51.598;7.650;2023-11-19T18:55:31;14.00;73.50
33007;DHT22;19361;51.598;7.650;2023-11-19T19:00:31;14.00;73.70
33007;DHT22;19361;51.598;7.650;2023-11-19T19:05:32;14.00;73.80
33007;DHT22;19361;51.598;7.650;2023-11-19T19:10:33;14.00;74.00
33007;DHT22;19361;51.598;7.650;2023-11-19T19:15:37;13.90;74.00
33007;DHT22;19361;51.598;7.650;2023-11-19T19:20:38;13.90;74.00
33007;DHT22;19361;51.598;7.650;2023-11-19T19:25:38;13.90;74.10
33007;DHT22;19361;51.598;7.650;2023-11-19T19:30:39;13.90;74.30
33007;DHT22;19361;51.598;7.650;2023-11-19T19:35:40;13.90;74.30
33007;DHT22;19361;51.598;7.650;2023-11-19T19:40:41;13.90;74.30
33007;DHT22;19361;51.598;7.650;2023-11-19T19:45:42;13.90;74.60
33007;DHT22;19361;51.598;7.650;2023-11-19T19:50:43;13.80;74.60
33007;DHT22;19361;51.598;7.650;2023-11-19T19:55:43;13.80;74.80
33007;DHT22;19361;51.598;7.650;2023-11-19T20:00:44;13.80;74.90
33007;DHT22;19361;51.598;7.650;2023-11-19T20:05:46;13.80;75.00
33007;DHT22;19361;51.598;7.650;2023-11-19T20:10:47;13.80;75.20
33007;DHT22;19361;51.598;7.650;2023-11-19T20:15:49;13.80;75.50
33007;DHT22;19361;51.598;7.650;2023-11-19T20:20:53;13.70;75.40
33007;DHT22;19361;51.598;7.650;2023-11-19T20:25:53;13.70;75.50
33007;DHT22;19361;51.598;7.650;2023-11-19T20:30:55;13.80;75.70
33007;DHT22;19361;51.598;7.650;2023-11-19T20:35:55;13.70;75.60
33007;DHT22;19361;51.598;7.650;2023-11-19T20:40:58;13.70;75.90
33007;DHT22;19361;51.598;7.650;2023-11-19T20:45:59;13.70;76.00
33007;DHT22;19361;51.598;7.650;2023-11-19T20:51:00;13.70;76.30
33007;DHT22;19361;51.598;7.650;2023-11-19T20:56:01;13.70;76.40
33007;DHT22;19361;51.598;7.650;2023-11-19T21:01:04;13.70;76.40
33007;DHT22;19361;51.598;7.650;2023-11-19T21:06:05;13.70;76.40
33007;DHT22;19361;51.598;7.650;2023-11-19T21:11:08;13.70;76.60
33007;DHT22;19361;51.598;7.650;2023-11-19T21:16:09;13.70;76.80
33007;DHT22;19361;51.598;7.650;2023-11-19T21:21:10;13.70;76.90
33007;DHT22;19361;51.598;7.650;2023-11-19T21:26:11;13.70;77.10
33007;DHT22;19361;51.598;7.650;2023-11-19T21:31:13;13.70;77.20
33007;DHT22;19361;51.598;7.650;2023-11-19T21:36:17;13.60;77.20
33007;DHT22;19361;51.598;7.650;2023-11-19T21:41:18;13.70;77.40
33007;DHT22;19361;51.598;7.650;2023-11-19T21:46:19;13.60;77.70
33007;DHT22;19361;51.598;7.650;2023-11-19T21:51:21;13.60;77.70
33007;DHT22;19361;51.598;7.650;2023-11-19T21:56:21;13.60;77.90
33007;DHT22;19361;51.598;7.650;2023-11-19T22:01:22;13.60;78.40
33007;DHT22;19361;51.598;7.650;2023-11-19T22:06:23;13.60;78.20
33007;DHT22;19361;51.598;7.650;2023-11-19T22:11:24;13.60;78.60
33007;DHT22;19361;51.598;7.650;2023-11-19T22:16:26;13.70;78.50
33007;DHT22;19361;51.598;7.650;2023-11-19T22:21:26;13.70;78.80
33007;DHT22;19361;51.598;7.650;2023-11-19T22:26:28;13.70;78.20
33007;DHT22;19361;51.598;7.650;2023-11-19T22:31:34;13.70;78.20
33007;DHT22;19361;51.598;7.650;2023-11-19T22:36:34;13.80;78.10
33007;DHT22;19361;51.598;7.650;2023-11-19T22:41:35;13.80;77.90
33007;DHT22;19361;51.598;7.650;2023-11-19T22:46:36;13.80;77.80
33007;DHT22;19361;51.598;7.650;2023-11-19T22:51:36;13.80;77.70
33007;DHT22;19361;51.598;7.650;2023-11-19T22:56:37;13.80;78.20
33007;DHT22;19361;51.598;7.650;2023-11-19T23:01:38;13.80;77.80
33007;DHT22;19361;51.598;7.650;2023-11-19T23:06:38;13.80;77.80
33007;DHT22;19361;51.598;7.650;2023-11-19T23:11:39;13.80;77.70
33007;DHT22;19361;51.598;7.650;2023-11-19T23:16:40;13.80;77.90
33007;DHT22;19361;51.598;7.650;2023-11-19T23:21:41;13.80;77.80
33007;DHT22;19361;51.598;7.650;2023-11-19T23:26:43;13.80;77.90
33007;DHT22;19361;51.598;7.650;2023-11-19T23:31:44;13.90;77.80
33007;DHT22;19361;51.598;7.650;2023-11-19T23:36:45;13.90;77.60
33007;DHT22;19361;51.598;7.650;2023-11-19T23:41:46;13.90;77.50
33007;DHT22;19361;51.598;7.650;2023-11-19T23:46:47;13.90;77.20
33007;DHT22;19361;51.598;7.650;2023-11-19T23:51:47;13.90;77.20
33007;DHT22;19361;51.598;7.650;2023-11-19T23:56:48;14.00;77.20
